Time;durP1;ratioP1;P1;durP2;ratioP2;P2;SDS_P1;SDS_P2;PMS_P1;PMS_P2;Temp;Humidity;BMP_temperature;BMP_pressure;BME280_temperature;BME280_humidity;BME280_pressure;Samples;Min_cycle;Max_cycle;Signal;HPM_P1;HPM_P2
2023/10/05 00:04:40;;;;;;;2.65;0.95;;;;;;;11.39;84.09;99628.75;10439785;28;20046;-35
2023/10/05 00:09:43;;;;;;;1.50;0.80;;;;;;;11.48;83.14;99635.94;10449922;28;20128;-35
2023/10/05 00:15:13;;;;;;;2.28;0.90;;;;;;;11.27;nan;99633.97;10472534;22;20052;-47
2023/10/05 00:20:23;;;;;;;4.43;1.30;;;;;;;11.28;84.31;99630.09;10481726;28;20444;-44
2023/10/05 00:25:28;;;;;;;1.23;0.93;;;;;;;10.93;85.72;99631.72;10446033;28;20121;-48
2023/10/05 00:30:31;;;;;;;2.55;1.20;;;;;;;11.39;84.52;99629.56;10443395;28;20049;-46
2023/10/05 00:35:36;;;;;;;1.77;1.02;;;;;;;11.48;83.51;99626.88;10449484;28;20037;-48
2023/10/05 00:45:59;;;;;;;1.88;1.20;;;;;;;10.92;86.04;99630.09;10474294;22;20056;-36
2023/10/05 00:51:23;;;;;;;2.67;1.17;;;;;;;11.27;86.04;99622.97;10490421;28;20045;-36
2023/10/05 00:56:28;;;;;;;1.10;1.00;;;;;;;11.11;86.48;99634.34;10489787;28;20047;-36
2023/10/05 01:01:49;;;;;;;1.63;1.20;;;;;;;11.06;85.43;99631.69;10489452;22;20048;-45
2023/10/05 01:06:56;;;;;;;1.23;0.90;;;;;;;11.00;87.96;99630.19;10482570;28;20041;-46
2023/10/05 01:12:35;;;;;;;2.55;1.02;;;;;;;11.31;86.51;99629.50;10489347;28;20045;-47
2023/10/05 01:17:25;;;;;;;1.35;1.00;;;;;;;11.42;84.74;99625.38;10499847;22;20080;-38
2023/10/05 01:22:41;;;;;;;4.03;1.30;;;;;;;11.53;84.34;99623.19;10463543;28;20410;-38
2023/10/05 01:27:49;;;;;;;1.52;1.10;;;;;;;11.80;83.39;99627.75;10447112;28;20053;-38
2023/10/05 01:32:51;;;;;;;1.75;1.20;;;;;;;11.61;84.34;99636.97;10476212;22;20071;-44
2023/10/05 01:37:53;;;;;;;1.55;0.85;;;;;;;11.61;84.24;99636.16;10487888;28;20056;-48
2023/10/05 01:42:56;;;;;;;1.40;0.90;;;;;;;11.78;83.40;99628.88;10481308;28;20047;-45
2023/10/05 01:48:02;;;;;;;2.85;1.05;;;;;;;11.52;83.73;99636.13;10492203;23;20439;-48
2023/10/05 01:53:08;;;;;;;1.45;1.17;;;;;;;11.54;84.35;99633.06;10483339;28;20039;-45
2023/10/05 01:58:26;;;;;;;1.55;0.90;;;;;;;11.52;85.67;99638.88;10488003;28;20053;-44
2023/10/05 02:03:29;;;;;;;1.27;0.95;;;;;;;11.24;86.47;99642.81;10494910;22;20378;-36
2023/10/05 02:08:35;;;;;;;2.63;1.20;;;;;;;10.68;88.84;99633.09;10452659;28;20037;-36
2023/10/05 02:13:37;;;;;;;1.95;0.90;;;;;;;9.94;90.98;99636.66;10484931;28;20036;-34
2023/10/05 02:18:41;;;;;;;1.40;1.10;;;;;;;10.11;92.88;99627.88;10479026;22;20057;-45
2023/10/05 02:23:51;;;;;;;1.33;0.98;;;;;;;10.13;92.75;99633.03;10473612;28;20056;-46
2023/10/05 02:28:55;;;;;;;2.25;1.33;;;;;;;9.77;94.18;99658.34;10468718;28;20593;-44
2023/10/05 02:33:58;;;;;;;2.33;1.10;;;;;;;10.15;93.48;99655.47;10500420;28;20044;-48
2023/10/05 02:39:01;;;;;;;2.22;1.17;;;;;;;10.44;93.20;99663.47;10446495;28;20042;-45
2023/10/05 02:44:31;;;;;;;2.13;0.80;;;;;;;10.41;90.01;99670.38;10443889;28;20033;-45
2023/10/05 02:49:30;;;;;;;2.88;0.80;;;;;;;10.43;89.78;99681.06;10512900;22;20051;-34
2023/10/05 02:54:33;;;;;;;1.55;0.80;;;;;;;10.16;90.35;99670.81;10518456;28;20036;-34
2023/10/05 02:59:35;;;;;;;2.10;0.70;;;;;;;10.42;89.24;99684.91;10502870;28;20051;-34
2023/10/05 03:04:44;;;;;;;1.15;0.80;;;;;;;10.41;88.74;99686.84;10479122;22;20065;-50
2023/10/05 03:09:48;;;;;;;2.03;1.02;;;;;;;10.70;87.43;99686.53;10453863;28;20041;-52
2023/10/05 03:14:54;;;;;;;2.58;1.05;;;;;;;10.52;87.13;99687.44;10452870;28;20080;-52
2023/10/05 03:19:59;;;;;;;5.00;1.40;;;;;;;10.47;86.11;99693.84;10435755;22;20057;-49
2023/10/05 03:25:06;;;;;;;5.10;1.15;;;;;;;10.63;85.84;99696.28;10374477;28;20061;-47
2023/10/05 03:30:14;;;;;;;2.38;1.10;;;;;;;10.82;84.96;99691.50;10396768;28;20049;-48
2023/10/05 03:35:22;;;;;;;4.43;1.00;;;;;;;10.80;84.74;99699.25;10394753;28;20132;-48
2023/10/05 03:40:35;;;;;;;2.05;0.82;;;;;;;10.73;83.97;99696.88;10377127;28;20041;-47
2023/10/05 03:45:39;;;;;;;3.65;1.08;;;;;;;10.76;84.63;99706.44;10469398;23;20053;-49
2023/10/05 03:50:42;;;;;;;4.50;1.10;;;;;;;10.52;85.11;99706.66;10492690;28;20044;-47
2023/10/05 03:55:47;;;;;;;1.80;1.10;;;;;;;10.56;84.20;99702.97;10495560;28;20033;-50
2023/10/05 04:00:50;;;;;;;2.13;1.13;;;;;;;10.70;85.42;99703.00;10501889;22;20052;-48
2023/10/05 04:05:53;;;;;;;0.98;0.75;;;;;;;10.80;84.73;99707.47;10455643;28;20042;-49
2023/10/05 04:10:59;;;;;;;2.38;0.85;;;;;;;10.70;85.21;99705.72;10465610;28;20044;-50
2023/10/05 04:16:06;;;;;;;1.50;0.60;;;;;;;10.90;83.26;99703.69;10479203;28;20048;-47
2023/10/05 04:21:10;;;;;;;2.10;0.75;;;;;;;11.07;83.68;99701.94;10482166;28;20534;-48
2023/10/05 04:26:12;;;;;;;1.05;0.70;;;;;;;10.88;82.94;99704.81;10476775;28;20041;-50
2023/10/05 04:31:15;;;;;;;1.45;0.70;;;;;;;10.21;84.78;99706.38;10479574;28;20450;-49
2023/10/05 04:36:19;;;;;;;1.10;0.60;;;;;;;10.52;83.84;99706.66;10481611;28;20060;-49
2023/10/05 04:41:30;;;;;;;1.35;0.70;;;;;;;10.02;86.92;99709.16;10482892;28;20045;-49
2023/10/05 04:46:33;;;;;;;0.82;0.50;;;;;;;10.15;87.47;99713.88;10512207;22;20075;-46
2023/10/05 04:51:38;;;;;;;0.77;0.50;;;;;;;10.27;88.14;99716.16;10526900;28;20511;-46
2023/10/05 05:06:53;;;;;;;0.60;0.60;;;;;;;11.28;82.65;99734.47;10504220;28;20033;-49
2023/10/05 05:12:03;;;;;;;1.88;0.90;;;;;;;11.07;84.18;99729.41;10493188;28;20040;-51
2023/10/05 05:17:05;;;;;;;1.85;0.63;;;;;;;11.09;85.07;99737.34;10506702;28;20424;-51
2023/10/05 05:22:08;;;;;;;1.85;0.63;;;;;;;11.13;83.99;99728.19;10502271;28;20037;-51
2023/10/05 05:32:19;;;;;;;1.50;0.82;;;;;;;10.68;86.06;99748.31;10536265;22;20053;-46
2023/10/05 05:37:30;;;;;;;1.42;1.00;;;;;;;12.01;79.98;99747.09;10543182;22;20071;-48
2023/10/05 05:42:34;;;;;;;1.85;0.68;;;;;;;11.62;81.21;99750.44;10515450;28;20044;-47
2023/10/05 05:47:36;;;;;;;1.33;0.70;;;;;;;12.06;79.99;99749.72;10505144;28;20040;-46
2023/10/05 05:52:39;;;;;;;0.65;0.60;;;;;;;11.57;81.21;99765.13;10570275;22;20052;-45
2023/10/05 05:57:41;;;;;;;1.55;0.60;;;;;;;11.13;84.49;99763.06;10570929;28;20441;-42
2023/10/05 06:02:43;;;;;;;2.05;0.70;;;;;;;10.76;86.32;99769.56;10571461;28;20050;-45
2023/10/05 06:07:50;;;;;;;1.58;0.80;;;;;;;10.49;87.39;99768.41;10547155;22;20064;-46
2023/10/05 06:12:52;;;;;;;3.30;1.13;;;;;;;10.47;88.46;99775.31;10528861;28;20036;-49
2023/10/05 06:17:54;;;;;;;1.77;0.82;;;;;;;10.87;87.11;99779.22;10528884;28;20041;-49
2023/10/05 06:22:57;;;;;;;2.25;0.70;;;;;;;12.74;80.62;99770.53;10526299;22;20052;-48
2023/10/05 06:28:00;;;;;;;2.10;0.90;;;;;;;12.14;81.68;99767.41;10507168;28;20557;-48
2023/10/05 06:33:02;;;;;;;1.90;1.00;;;;;;;11.82;84.29;99771.22;10526183;28;20109;-48
2023/10/05 06:38:04;;;;;;;3.10;1.00;;;;;;;13.46;79.48;99767.38;10538465;22;20061;-49
2023/10/05 06:43:07;;;;;;;3.03;1.27;;;;;;;14.90;71.98;99778.13;10497289;28;20033;-45
2023/10/05 06:48:09;;;;;;;3.03;1.20;;;;;;;14.24;73.76;99777.66;10486823;28;20428;-47
2023/10/05 06:53:11;;;;;;;1.77;1.00;;;;;;;14.81;72.37;99785.66;10568657;22;20071;-49
2023/10/05 06:58:13;;;;;;;2.15;1.02;;;;;;;13.33;75.62;99786.81;10569389;28;20043;-51
2023/10/05 07:03:16;;;;;;;1.30;0.93;;;;;;;15.39;71.29;99784.91;10565461;28;20051;-47
2023/10/05 07:08:18;;;;;;;3.17;1.27;;;;;;;14.16;72.83;99791.09;10530254;28;20040;-50
2023/10/05 07:13:22;;;;;;;4.22;1.67;;;;;;;14.00;76.35;99794.69;10542513;28;20059;-47
2023/10/05 07:18:33;;;;;;;2.35;1.33;;;;;;;13.66;76.43;99800.97;10529741;28;20044;-49
2023/10/05 07:23:39;;;;;;;1.63;0.93;;;;;;;13.67;76.64;99794.31;10404643;28;20433;-50
2023/10/05 07:28:41;;;;;;;2.45;1.10;;;;;;;13.05;77.89;99798.03;10443540;28;20037;-47
2023/10/05 07:33:43;;;;;;;1.50;0.98;;;;;;;12.54;80.02;99807.66;10479211;28;20041;-49
2023/10/05 07:38:45;;;;;;;2.60;0.88;;;;;;;12.57;81.34;99808.97;10489324;28;20487;-47
2023/10/05 07:43:47;;;;;;;4.18;1.20;;;;;;;12.61;81.37;99804.44;10513261;28;20527;-47
2023/10/05 07:48:49;;;;;;;0.85;0.80;;;;;;;12.59;81.22;99807.53;10503741;23;20040;-49
2023/10/05 07:53:52;;;;;;;3.15;1.10;;;;;;;12.32;83.55;99815.91;10504698;28;20486;-49
2023/10/05 07:58:54;;;;;;;1.45;1.00;;;;;;;12.05;84.96;99819.59;10483613;28;20041;-45
2023/10/05 08:03:57;;;;;;;5.70;1.30;;;;;;;12.16;86.80;99815.50;10525797;22;20037;-47
2023/10/05 08:09:00;;;;;;;4.85;1.50;;;;;;;12.92;82.63;99820.97;10512767;28;20049;-49
2023/10/05 08:14:04;;;;;;;1.13;0.90;;;;;;;13.42;79.31;99823.47;10511890;28;20041;-45
2023/10/05 08:19:06;;;;;;;3.45;1.10;;;;;;;13.60;80.69;99829.84;10528757;22;20040;-48
2023/10/05 08:24:08;;;;;;;1.13;0.80;;;;;;;13.67;80.37;99830.16;10494862;28;20487;-50
2023/10/05 08:29:11;;;;;;;1.33;0.88;;;;;;;14.91;76.54;99823.97;10517732;28;20230;-50
2023/10/05 08:34:20;;;;;;;3.45;1.30;;;;;;;16.22;71.34;99817.38;10540480;22;20033;-46
2023/10/05 08:39:26;;;;;;;3.03;1.50;;;;;;;17.32;66.98;99826.00;10487364;28;20045;-45
2023/10/05 08:44:30;;;;;;;4.03;1.20;;;;;;;15.66;71.17;99830.66;10490787;28;20049;-41
2023/10/05 08:49:33;;;;;;;3.97;1.60;;;;;;;14.45;74.72;99833.81;10494325;22;21349;-44
2023/10/05 08:54:36;;;;;;;1.38;1.08;;;;;;;13.65;78.08;99837.97;10515243;28;20045;-44
2023/10/05 08:59:50;;;;;;;1.90;1.20;;;;;;;13.32;79.65;99829.25;10529081;28;20079;-47
2023/10/05 09:04:59;;;;;;;1.98;0.77;;;;;;;12.90;80.92;99828.75;10538313;22;20048;-39
2023/10/05 09:10:06;;;;;;;1.65;1.17;;;;;;;12.75;82.83;99826.41;10526991;28;20269;-43
2023/10/05 09:15:26;;;;;;;3.07;0.90;;;;;;;12.80;82.78;99829.00;10531350;28;20041;-46
2023/10/05 09:20:36;;;;;;;2.28;1.23;;;;;;;12.99;83.72;99816.63;10543982;22;20056;-46
2023/10/05 09:25:44;;;;;;;1.30;0.82;;;;;;;13.36;81.96;99809.00;10487710;28;20040;-48
2023/10/05 09:30:57;;;;;;;3.30;1.10;;;;;;;13.28;82.00;99813.38;10491286;28;20068;-51
2023/10/05 09:36:16;;;;;;;2.58;1.02;;;;;;;12.69;83.58;99831.22;10487896;28;20041;-51
2023/10/05 09:41:19;;;;;;;2.72;0.80;;;;;;;13.27;80.49;99833.00;10486742;28;20051;-50
2023/10/05 09:46:22;;;;;;;2.38;0.90;;;;;;;13.15;81.82;99829.97;10487987;28;20041;-49
2023/10/05 09:51:24;;;;;;;2.25;0.90;;;;;;;13.21;82.52;99828.75;10473473;28;20041;-52
2023/10/05 09:56:27;;;;;;;1.85;0.70;;;;;;;13.46;81.18;99830.78;10487586;28;20036;-52
2023/10/05 10:01:30;;;;;;;2.83;0.85;;;;;;;13.30;80.12;99831.53;10506903;28;20040;-51
2023/10/05 10:06:35;;;;;;;1.60;0.60;;;;;;;13.39;80.19;99824.94;10521129;22;20071;-42
2023/10/05 10:11:37;;;;;;;0.90;0.60;;;;;;;13.04;77.88;99826.72;10487472;28;20045;-40
2023/10/05 10:16:43;;;;;;;0.90;0.60;;;;;;;12.69;78.92;99822.97;10488906;28;20132;-43
2023/10/05 10:21:48;;;;;;;2.42;1.10;;;;;;;12.75;78.93;99829.97;10527559;22;20064;-46
2023/10/05 10:27:11;;;;;;;0.70;0.60;;;;;;;12.58;79.38;99838.13;10480685;28;20080;-51
2023/10/05 10:32:22;;;;;;;0.90;0.38;;;;;;;12.81;77.95;99830.63;10485258;28;20158;-49
2023/10/05 10:37:51;;;;;;;0.60;0.43;;;;;;;13.22;74.00;99827.63;10496861;22;20051;-47
2023/10/05 10:48:53;;;;;;;0.43;0.35;;;;;;;12.94;74.17;99819.53;10470776;28;20492;-48
2023/10/05 10:53:37;;;;;;;0.50;0.50;;;;;;;13.05;73.58;99811.00;10501950;22;20048;-49
2023/10/05 10:58:40;;;;;;;1.70;0.80;;;;;;;12.95;74.66;99809.31;10526693;28;20047;-51
2023/10/05 11:03:44;;;;;;;1.05;0.80;;;;;;;12.78;76.29;99804.53;10525828;28;20044;-51
2023/10/05 11:08:51;;;;;;;0.98;0.82;;;;;;;12.83;76.04;99801.66;10523807;28;20044;-51
2023/10/05 11:13:56;;;;;;;5.80;1.10;;;;;;;12.75;76.65;99794.16;10507869;28;20044;-51
2023/10/05 11:18:58;;;;;;;1.55;0.80;;;;;;;12.62;76.24;99789.56;10482959;28;20431;-51
2023/10/05 11:24:07;;;;;;;1.60;1.00;;;;;;;12.46;76.45;99797.41;10518758;23;20052;-40
2023/10/05 11:29:15;;;;;;;1.35;1.20;;;;;;;12.66;76.26;99796.06;10526724;28;20123;-40
2023/10/05 11:34:19;;;;;;;2.80;1.50;;;;;;;12.90;75.33;99796.50;10527473;28;20032;-40
2023/10/05 11:39:27;;;;;;;1.60;1.10;;;;;;;13.21;75.07;99792.94;10577914;22;20390;-48
2023/10/05 11:44:29;;;;;;;1.10;0.80;;;;;;;12.87;73.48;99788.91;10554814;28;20055;-48
2023/10/05 11:49:32;;;;;;;0.85;0.60;;;;;;;12.94;73.19;99788.44;10514773;28;20052;-47
2023/10/05 11:54:34;;;;;;;0.95;0.70;;;;;;;12.57;74.03;99787.75;10499709;28;20037;-45
2023/10/05 11:59:37;;;;;;;1.42;0.60;;;;;;;12.76;73.88;99783.97;10507782;28;20118;-45
2023/10/05 12:04:39;;;;;;;1.83;0.80;;;;;;;12.75;73.64;99777.66;10518919;28;20048;-47
2023/10/05 12:09:45;;;;;;;2.25;0.77;;;;;;;12.74;74.03;99772.47;10537801;22;20059;-47
2023/10/05 12:14:48;;;;;;;1.75;0.95;;;;;;;12.87;74.09;99780.63;10522002;28;20060;-46
2023/10/05 12:19:51;;;;;;;0.80;0.70;;;;;;;13.13;74.06;99771.66;10526075;28;20455;-47
2023/10/05 12:24:53;;;;;;;2.22;1.25;;;;;;;12.72;74.07;99764.53;10506285;22;20064;-47
2023/10/05 12:29:56;;;;;;;2.42;0.80;;;;;;;12.81;75.31;99762.63;10479088;28;20045;-49
2023/10/05 12:34:59;;;;;;;1.25;0.80;;;;;;;12.73;74.11;99763.41;10487263;28;20381;-48
2023/10/05 12:40:17;;;;;;;0.63;0.52;;;;;;;12.78;74.15;99759.69;10537218;23;20443;-47
2023/10/05 12:45:23;;;;;;;2.63;0.80;;;;;;;12.89;75.45;99745.34;10542277;28;20036;-47
2023/10/05 12:50:28;;;;;;;1.50;0.73;;;;;;;12.85;75.41;99743.53;10536868;28;20036;-44
2023/10/05 12:55:30;;;;;;;1.33;0.70;;;;;;;12.84;75.18;99748.25;10545634;28;20028;-44
2023/10/05 13:00:39;;;;;;;0.88;0.70;;;;;;;12.96;75.46;99748.41;10530186;28;20047;-44
2023/10/05 13:05:43;;;;;;;1.38;0.70;;;;;;;12.99;75.96;99738.72;10540217;28;20048;-45
2023/10/05 13:10:48;;;;;;;1.77;1.10;;;;;;;12.60;76.95;99726.56;10519796;28;20040;-45
2023/10/05 13:15:52;;;;;;;1.02;0.90;;;;;;;12.77;77.25;99722.28;10532977;28;20538;-47
2023/10/05 13:20:55;;;;;;;1.45;1.00;;;;;;;12.92;76.40;99717.16;10536453;28;20518;-43
2023/10/05 13:25:58;;;;;;;1.60;1.00;;;;;;;12.95;76.33;99715.69;10530285;28;20039;-45
2023/10/05 13:31:06;;;;;;;2.88;1.20;;;;;;;12.99;76.35;99716.69;10547278;22;20052;-47
2023/10/05 13:36:12;;;;;;;1.98;0.75;;;;;;;13.19;76.13;99726.31;10518469;28;20037;-48
2023/10/05 13:41:14;;;;;;;1.13;1.00;;;;;;;13.15;75.49;99722.56;10496672;28;20040;-46
2023/10/05 13:46:17;;;;;;;3.80;1.58;;;;;;;12.91;78.09;99721.03;10508735;23;20064;-40
2023/10/05 13:51:20;;;;;;;2.42;1.13;;;;;;;13.04;77.15;99718.50;10461929;28;20041;-42
2023/10/05 13:56:32;;;;;;;4.38;1.48;;;;;;;12.96;77.64;99712.63;10484024;28;20040;-44
2023/10/05 14:01:42;;;;;;;3.72;1.83;;;;;;;12.68;79.03;99711.25;10498056;22;20140;-44
2023/10/05 14:06:45;;;;;;;8.88;3.25;;;;;;;13.03;77.68;99709.41;10528546;28;20029;-49
2023/10/05 14:11:47;;;;;;;9.05;4.40;;;;;;;13.06;78.62;99710.72;10512707;28;20519;-47
2023/10/05 14:16:52;;;;;;;7.88;3.33;;;;;;;13.11;77.78;99708.63;10513383;22;20065;-42
2023/10/05 14:21:56;;;;;;;5.97;2.92;;;;;;;13.03;78.37;99700.34;10517660;28;20052;-42
2023/10/05 14:26:59;;;;;;;8.75;4.15;;;;;;;13.29;78.43;99692.97;10524633;28;20071;-42
2023/10/05 14:32:05;;;;;;;5.22;2.47;;;;;;;12.92;78.60;99686.06;10542463;22;20775;-47
2023/10/05 14:37:09;;;;;;;2.33;1.30;;;;;;;12.89;78.92;99676.50;10533246;28;20028;-50
2023/10/05 14:42:11;;;;;;;3.50;1.95;;;;;;;12.70;79.07;99672.38;10479383;28;20037;-46
2023/10/05 14:47:14;;;;;;;2.33;1.45;;;;;;;12.54;79.78;99672.00;10491157;22;20036;-45
2023/10/05 14:52:17;;;;;;;2.28;1.88;;;;;;;12.60;80.49;99667.97;10511475;28;20048;-46
2023/10/05 14:57:21;;;;;;;3.65;1.95;;;;;;;12.54;80.14;99656.31;10519903;28;20036;-47
2023/10/05 15:02:23;;;;;;;3.88;1.40;;;;;;;12.26;81.81;99650.19;10520103;22;20187;-45
2023/10/05 15:07:28;;;;;;;4.07;1.38;;;;;;;12.13;82.25;99640.09;10518763;28;20127;-44
2023/10/05 15:12:30;;;;;;;3.10;1.55;;;;;;;12.00;82.71;99646.50;10516747;28;20045;-44
2023/10/05 15:17:33;;;;;;;2.72;1.17;;;;;;;11.97;82.96;99630.63;10523836;22;20041;-47
2023/10/05 15:22:35;;;;;;;3.95;1.20;;;;;;;11.99;83.28;99631.94;10519051;28;20056;-48
2023/10/05 15:27:37;;;;;;;3.53;1.33;;;;;;;12.04;83.48;99631.81;10522569;28;20051;-45
2023/10/05 15:32:40;;;;;;;2.13;1.42;;;;;;;12.07;83.51;99625.66;10505795;28;20051;-46
2023/10/05 15:37:45;;;;;;;2.92;1.27;;;;;;;11.90;83.22;99616.50;10490249;28;20041;-46
2023/10/05 15:42:49;;;;;;;1.85;0.93;;;;;;;11.96;82.69;99613.31;10485402;28;20044;-48
2023/10/05 15:47:54;;;;;;;2.38;1.10;;;;;;;12.00;82.55;99591.50;10454297;28;20040;-47
2023/10/05 15:52:59;;;;;;;1.65;1.33;;;;;;;11.86;83.12;99610.84;10469097;28;20054;-46
2023/10/05 15:58:09;;;;;;;8.00;1.30;;;;;;;11.75;83.96;99612.19;10482058;28;20041;-46
2023/10/05 16:03:12;;;;;;;2.25;1.20;;;;;;;11.69;85.47;99628.00;10468662;28;20048;-46
2023/10/05 16:08:17;;;;;;;3.35;1.02;;;;;;;11.42;81.38;99634.41;10477942;28;20045;-47
2023/10/05 16:13:19;;;;;;;0.75;0.40;;;;;;;10.65;74.33;99634.50;10515256;23;20431;-45
2023/10/05 16:18:24;;;;;;;1.48;0.60;;;;;;;10.36;75.68;99637.56;10560879;28;20039;-48
2023/10/05 16:23:26;;;;;;;3.47;1.08;;;;;;;10.41;76.98;99633.91;10566964;28;20047;-48
2023/10/05 16:28:28;;;;;;;1.50;0.60;;;;;;;10.00;79.15;99631.09;10563910;22;20060;-46
2023/10/05 16:33:30;;;;;;;3.13;1.00;;;;;;;9.86;82.92;99628.31;10506793;28;20048;-48
2023/10/05 16:38:34;;;;;;;2.92;1.10;;;;;;;9.72;84.07;99622.81;10541657;28;20045;-50
2023/10/05 16:43:36;;;;;;;2.42;1.23;;;;;;;9.76;85.62;99612.88;10522811;28;20036;-48
2023/10/05 16:48:38;;;;;;;2.38;1.30;;;;;;;9.85;84.01;99608.31;10529113;28;20415;-48
2023/10/05 16:53:41;;;;;;;2.60;1.40;;;;;;;9.90;82.36;99601.97;10531796;28;20057;-46
2023/10/05 16:58:43;;;;;;;2.08;1.23;;;;;;;10.02;81.96;99593.22;10534364;22;20053;-45
2023/10/05 17:03:45;;;;;;;2.25;0.93;;;;;;;9.95;78.83;99599.94;10524754;28;20047;-43
2023/10/05 17:08:48;;;;;;;1.67;0.60;;;;;;;10.11;78.06;99596.91;10529033;28;20032;-43
2023/10/05 17:13:50;;;;;;;0.85;0.70;;;;;;;10.11;76.55;99581.28;10545754;22;20059;-45
2023/10/05 17:18:52;;;;;;;1.90;0.85;;;;;;;10.13;75.82;99583.69;10557271;28;20041;-45
2023/10/05 17:23:56;;;;;;;2.28;0.93;;;;;;;10.07;75.26;99571.22;10570004;28;20047;-45
2023/10/05 17:28:58;;;;;;;0.75;0.65;;;;;;;10.01;75.25;99573.22;10567453;28;20294;-47
2023/10/05 17:34:00;;;;;;;3.60;1.10;;;;;;;10.09;77.49;99582.69;10571217;28;20522;-45
2023/10/05 17:39:04;;;;;;;2.05;1.38;;;;;;;10.35;77.00;99572.06;10532074;28;20036;-47
2023/10/05 17:44:07;;;;;;;1.73;1.17;;;;;;;10.99;75.72;99579.16;10510166;22;20064;-42
2023/10/05 17:49:09;;;;;;;1.83;1.20;;;;;;;10.97;75.37;99575.09;10505878;28;20047;-46
2023/10/05 17:54:12;;;;;;;2.13;1.08;;;;;;;10.68;75.44;99572.72;10508171;28;20427;-46
2023/10/05 17:59:17;;;;;;;3.10;1.23;;;;;;;10.75;76.94;99573.91;10518260;22;20061;-51
2023/10/05 18:04:19;;;;;;;2.25;1.23;;;;;;;10.78;77.02;99575.25;10500235;28;20048;-47
2023/10/05 18:09:22;;;;;;;2.55;1.20;;;;;;;10.61;75.97;99577.84;10503859;28;20059;-48
2023/10/05 18:14:26;;;;;;;4.78;1.23;;;;;;;10.48;77.26;99574.78;10519808;22;20467;-48
2023/10/05 18:19:28;;;;;;;3.10;1.20;;;;;;;10.51;77.75;99579.66;10514020;28;20043;-49
2023/10/05 18:24:30;;;;;;;2.40;1.48;;;;;;;10.41;80.14;99577.16;10519528;28;20040;-49
2023/10/05 18:29:33;;;;;;;1.55;1.20;;;;;;;10.17;80.67;99569.06;10550208;22;20048;-44
2023/10/05 18:34:35;;;;;;;2.03;1.42;;;;;;;10.14;82.05;99571.63;10515801;28;20045;-44
2023/10/05 18:39:37;;;;;;;2.45;1.23;;;;;;;9.67;84.90;99566.19;10502384;28;20067;-44
2023/10/05 18:44:40;;;;;;;4.13;1.40;;;;;;;9.39;87.31;99563.69;10519117;22;20056;-46
2023/10/05 18:49:42;;;;;;;2.80;1.63;;;;;;;9.21;89.82;99557.94;10491111;28;20062;-47
2023/10/05 18:54:44;;;;;;;2.92;1.52;;;;;;;9.27;90.04;99556.75;10510709;28;20043;-50
2023/10/05 18:59:47;;;;;;;2.30;1.60;;;;;;;9.17;91.20;99556.09;10508003;28;20044;-47
2023/10/05 19:04:49;;;;;;;3.05;1.17;;;;;;;9.09;93.16;99549.38;10505179;28;20044;-48
2023/10/05 19:09:51;;;;;;;0.38;0.38;;;;;;;8.93;93.96;99559.75;10503597;28;20051;-47
2023/10/05 19:14:53;;;;;;;1.77;0.70;;;;;;;8.95;93.99;99554.78;10500721;28;20496;-51
2023/10/05 19:19:57;;;;;;;0.57;0.45;;;;;;;8.90;95.25;99563.06;10503880;28;20047;-49
2023/10/05 19:25:00;;;;;;;1.05;0.73;;;;;;;8.73;94.43;99562.78;10501715;28;20040;-50
2023/10/05 19:30:04;;;;;;;1.52;0.90;;;;;;;8.77;96.63;99558.34;10521945;23;20059;-50
2023/10/05 19:35:08;;;;;;;1.92;0.88;;;;;;;8.67;95.60;99570.22;10511623;28;20037;-50
2023/10/05 19:40:12;;;;;;;0.20;0.20;;;;;;;8.54;96.90;99554.56;10499125;28;20082;-46
2023/10/05 19:45:15;;;;;;;0.70;0.70;;;;;;;8.43;97.14;99564.00;10520800;22;20478;-48
2023/10/05 19:50:17;;;;;;;0.60;0.60;;;;;;;8.27;96.83;99577.00;10505553;28;20040;-46
2023/10/05 19:55:20;;;;;;;2.47;0.90;;;;;;;7.95;94.58;99613.16;10521335;28;20042;-49
2023/10/05 20:00:22;;;;;;;0.50;0.40;;;;;;;7.85;94.94;99589.50;10525184;22;20049;-48
2023/10/05 20:05:24;;;;;;;0.50;0.50;;;;;;;7.71;93.51;99604.13;10499342;28;21961;-45
2023/10/05 20:10:32;;;;;;;2.28;0.43;;;;;;;7.65;94.59;99588.91;10509103;28;20044;-47
2023/10/05 20:15:40;;;;;;;0.63;0.40;;;;;;;7.69;94.10;99584.47;10527870;22;20427;-43
2023/10/05 20:20:43;;;;;;;0.73;0.32;;;;;;;7.57;93.46;99585.66;10519535;28;20063;-48
2023/10/05 20:25:45;;;;;;;0.40;0.40;;;;;;;7.66;93.93;99583.16;10517989;28;20032;-47
2023/10/05 20:30:48;;;;;;;0.43;0.40;;;;;;;7.68;94.11;99583.66;10494418;22;20049;-44
2023/10/05 20:35:59;;;;;;;0.32;0.22;;;;;;;7.58;93.55;99597.41;10424150;28;20982;-43
2023/10/05 20:41:04;;;;;;;1.15;0.30;;;;;;;7.47;92.87;99593.97;10399968;28;20410;-40
2023/10/05 20:46:09;;;;;;;1.17;0.30;;;;;;;7.33;94.32;99595.72;10477981;23;20530;-44
2023/10/05 20:51:11;;;;;;;0.20;0.20;;;;;;;7.06;93.38;99598.09;10525207;28;20052;-42
2023/10/05 20:56:16;;;;;;;0.20;0.20;;;;;;;7.16;91.66;99608.94;10529970;28;20048;-42
2023/10/05 21:01:19;;;;;;;0.20;0.20;;;;;;;7.02;90.76;99616.13;10519426;22;20059;-45
2023/10/05 21:06:21;;;;;;;0.45;0.40;;;;;;;7.07;89.43;99613.34;10523450;28;20052;-44
2023/10/05 21:11:24;;;;;;;0.55;0.28;;;;;;;6.82;88.92;99627.97;10523807;28;20423;-48
2023/10/05 21:16:28;;;;;;;0.55;0.45;;;;;;;6.72;89.43;99623.38;10488260;23;20063;-51
2023/10/05 21:21:31;;;;;;;0.55;0.45;;;;;;;6.53;89.21;99628.66;10487171;28;20125;-48
2023/10/05 21:26:36;;;;;;;0.28;0.15;;;;;;;6.78;87.47;99622.28;10485369;28;20040;-47
2023/10/05 21:31:38;;;;;;;1.38;0.30;;;;;;;6.75;88.27;99627.44;10515058;22;20044;-41
2023/10/05 21:36:40;;;;;;;0.30;0.30;;;;;;;6.65;86.27;99631.88;10490135;28;20412;-42
2023/10/05 21:41:43;;;;;;;0.35;0.20;;;;;;;6.57;86.80;99632.44;10487320;28;20511;-40
2023/10/05 21:46:46;;;;;;;0.28;0.20;;;;;;;6.37;87.76;99635.25;10481633;28;20508;-41
2023/10/05 21:51:48;;;;;;;0.28;0.22;;;;;;;6.42;87.05;99634.41;10487386;28;20037;-42
2023/10/05 21:56:52;;;;;;;0.50;0.20;;;;;;;6.42;87.49;99646.16;10516214;28;20416;-43
2023/10/05 22:01:55;;;;;;;0.55;0.55;;;;;;;6.46;86.41;99654.59;10494120;28;20048;-43
2023/10/05 22:06:57;;;;;;;1.48;0.40;;;;;;;6.44;86.64;99646.69;10488233;28;20048;-41
2023/10/05 22:12:03;;;;;;;0.75;0.50;;;;;;;6.49;87.78;99648.56;10478817;28;20499;-41
2023/10/05 22:17:06;;;;;;;0.30;0.30;;;;;;;6.31;87.19;99639.09;10477774;28;20041;-41
2023/10/05 22:22:11;;;;;;;0.10;0.10;;;;;;;6.51;86.03;99654.56;10486800;28;20045;-43
2023/10/05 22:27:14;;;;;;;0.35;0.20;;;;;;;6.22;86.18;99679.69;10486815;28;20048;-46
2023/10/05 22:32:16;;;;;;;0.30;0.30;;;;;;;6.31;86.42;99686.22;10490184;28;20049;-41
2023/10/05 22:37:18;;;;;;;1.05;0.40;;;;;;;6.37;84.16;99691.66;10479122;28;20040;-40
2023/10/05 22:42:21;;;;;;;0.30;0.22;;;;;;;6.21;84.46;99682.69;10472043;28;20044;-41
2023/10/05 22:47:24;;;;;;;0.10;0.10;;;;;;;6.27;82.25;99698.78;10481489;28;20025;-44
2023/10/05 22:52:27;;;;;;;0.55;0.28;;;;;;;6.31;81.31;99688.94;10475049;28;20388;-41
2023/10/05 22:57:29;;;;;;;0.88;0.30;;;;;;;6.31;80.22;99699.03;10479136;28;20044;-41
2023/10/05 23:02:32;;;;;;;0.32;0.22;;;;;;;6.12;79.21;99715.16;10484267;28;20036;-42
2023/10/05 23:07:36;;;;;;;0.20;0.20;;;;;;;6.17;77.80;99726.03;10484785;28;20037;-42
2023/10/05 23:12:40;;;;;;;0.10;0.10;;;;;;;6.00;77.03;99723.59;10480728;28;20059;-43
2023/10/05 23:17:42;;;;;;;0.20;0.10;;;;;;;6.10;76.93;99719.25;10484394;28;20116;-43
2023/10/05 23:22:46;;;;;;;0.20;0.20;;;;;;;5.88;76.20;99733.09;10486892;28;20036;-41
2023/10/05 23:27:49;;;;;;;0.55;0.20;;;;;;;5.96;74.69;99729.84;10485053;28;20612;-44
2023/10/05 23:32:53;;;;;;;0.35;0.20;;;;;;;5.91;74.61;99738.03;10484837;28;20551;-40
2023/10/05 23:37:58;;;;;;;0.45;0.40;;;;;;;5.90;74.36;99744.53;10484503;28;20041;-41
2023/10/05 23:43:00;;;;;;;0.60;0.60;;;;;;;5.81;73.74;99754.31;10483607;28;20043;-41
2023/10/05 23:48:07;;;;;;;0.40;0.40;;;;;;;5.87;73.35;99773.09;10483418;28;20044;-42
2023/10/05 23:53:10;;;;;;;1.77;0.43;;;;;;;5.75;74.04;99773.38;10489459;28;20555;-41
2023/10/05 23:58:15;;;;;;;0.88;0.20;;;;;;;5.73;73.57;99774.75;10487872;28;20040;-43
